createdAt,value
2022-10-08T00:00:15.334Z,11.87
2022-10-08T00:02:42.873Z,11.88
2022-10-08T00:05:11.025Z,12.00
2022-10-08T00:07:44.821Z,11.95
2022-10-08T00:10:12.747Z,11.88
2022-10-08T00:12:57.212Z,11.91
2022-10-08T00:15:42.186Z,12.03
2022-10-08T00:18:09.539Z,12.10
2022-10-08T00:20:37.033Z,12.07
2022-10-08T00:23:04.395Z,12.06
2022-10-08T00:25:31.723Z,11.95
2022-10-08T00:27:59.255Z,11.91
2022-10-08T00:30:26.785Z,11.83
2022-10-08T00:32:59.912Z,11.73
2022-10-08T00:35:28.451Z,11.87
2022-10-08T00:37:56.576Z,11.88
2022-10-08T00:40:25.183Z,11.95
2022-10-08T00:42:54.484Z,11.91
2022-10-08T00:45:21.973Z,11.94
2022-10-08T00:47:49.969Z,11.95
2022-10-08T00:50:22.878Z,11.83
2022-10-08T00:52:55.163Z,11.72
2022-10-08T00:55:27.751Z,11.70
2022-10-08T00:58:01.763Z,11.66
2022-10-08T01:00:30.470Z,11.61
2022-10-08T01:02:58.474Z,11.54
2022-10-08T01:05:59.003Z,11.51
2022-10-08T01:09:03.624Z,11.47
2022-10-08T01:11:44.446Z,11.42
2022-10-08T01:14:44.528Z,11.58
2022-10-08T01:17:42.908Z,11.70
2022-10-08T01:20:21.555Z,11.78
2022-10-08T01:23:26.729Z,11.66
2022-10-08T01:26:22.867Z,11.68
2022-10-08T01:29:09.395Z,11.69
2022-10-08T01:32:02.066Z,11.59
2022-10-08T01:34:37.782Z,11.64
2022-10-08T01:37:17.774Z,11.63
2022-10-08T01:39:49.031Z,11.61
2022-10-08T01:42:19.287Z,11.66
2022-10-08T01:44:55.164Z,11.67
2022-10-08T01:47:29.418Z,11.72
2022-10-08T01:50:13.552Z,11.77
2022-10-08T01:52:54.832Z,11.78
2022-10-08T01:55:29.886Z,11.84
2022-10-08T01:58:04.206Z,11.95
2022-10-08T02:00:34.708Z,11.93
2022-10-08T02:03:04.638Z,12.01
2022-10-08T02:05:36.407Z,12.11
2022-10-08T02:08:04.614Z,12.08
2022-10-08T02:10:32.655Z,12.08
2022-10-08T02:13:00.494Z,12.09
2022-10-08T02:16:07.150Z,12.07
2022-10-08T02:18:45.333Z,12.19
2022-10-08T02:21:20.763Z,12.32
2022-10-08T02:23:56.119Z,12.25
2022-10-08T02:26:30.035Z,12.26
2022-10-08T02:29:04.247Z,12.18
2022-10-08T02:31:38.216Z,12.19
2022-10-08T02:34:17.912Z,12.18
2022-10-08T02:36:52.528Z,12.20
2022-10-08T02:39:21.401Z,12.21
2022-10-08T02:41:54.403Z,12.23
2022-10-08T02:44:34.732Z,12.26
2022-10-08T02:47:09.130Z,12.36
2022-10-08T02:49:44.413Z,12.35
2022-10-08T02:52:40.311Z,12.40
2022-10-08T02:55:41.784Z,12.44
2022-10-08T02:58:12.084Z,12.32
2022-10-08T03:00:50.202Z,12.24
2022-10-08T03:03:21.245Z,12.28
2022-10-08T03:05:52.782Z,12.29
2022-10-08T03:08:22.131Z,12.27
2022-10-08T03:10:50.134Z,12.25
2022-10-08T03:13:28.863Z,12.28
2022-10-08T03:15:58.259Z,12.39
2022-10-08T03:18:26.898Z,12.47
2022-10-08T03:20:55.982Z,12.51
2022-10-08T03:23:24.281Z,12.44
2022-10-08T03:25:51.643Z,12.47
2022-10-08T03:28:19.500Z,12.52
2022-10-08T03:30:47.720Z,12.58
2022-10-08T03:33:15.182Z,12.45
2022-10-08T03:35:46.688Z,12.48
2022-10-08T03:38:17.889Z,12.55
2022-10-08T03:40:58.211Z,12.58
2022-10-08T03:43:32.168Z,12.53
2022-10-08T03:46:00.085Z,12.48
2022-10-08T03:48:27.827Z,12.51
2022-10-08T03:51:00.953Z,12.46
2022-10-08T03:53:32.471Z,12.52
2022-10-08T03:56:05.063Z,12.53
2022-10-08T03:58:36.512Z,12.60
2022-10-08T04:01:07.060Z,12.63
2022-10-08T04:03:38.271Z,12.61
2022-10-08T04:06:06.075Z,12.56
2022-10-08T04:08:35.097Z,12.49
2022-10-08T04:11:07.527Z,12.51
2022-10-08T04:13:37.933Z,12.46
2022-10-08T04:16:13.790Z,12.53
2022-10-08T04:18:47.180Z,12.53
2022-10-08T04:21:22.786Z,12.58
2022-10-08T04:23:51.118Z,12.49
2022-10-08T04:26:18.514Z,12.55
2022-10-08T04:28:46.312Z,12.56
2022-10-08T04:31:18.424Z,12.49
2022-10-08T04:33:46.606Z,12.70
2022-10-08T04:36:17.404Z,12.88
2022-10-08T04:38:50.807Z,12.90
2022-10-08T04:41:24.793Z,13.02
2022-10-08T04:43:54.229Z,13.03
2022-10-08T04:46:31.801Z,12.97
2022-10-08T04:49:00.712Z,13.19
2022-10-08T04:51:32.891Z,13.16
2022-10-08T04:54:18.715Z,13.22
2022-10-08T04:56:56.795Z,13.24
2022-10-08T04:59:24.702Z,13.29
2022-10-08T05:02:11.104Z,13.13
2022-10-08T05:04:50.318Z,13.26
2022-10-08T05:07:18.290Z,13.26
2022-10-08T05:09:46.937Z,13.18
2022-10-08T05:12:15.034Z,13.26
2022-10-08T05:14:46.489Z,13.14
2022-10-08T05:17:14.800Z,13.10
2022-10-08T05:19:42.361Z,13.07
2022-10-08T05:22:09.893Z,13.03
2022-10-08T05:24:37.356Z,12.92
2022-10-08T05:27:04.985Z,12.81
2022-10-08T05:29:33.026Z,12.73
2022-10-08T05:32:07.705Z,12.74
2022-10-08T05:34:35.367Z,12.72
2022-10-08T05:37:04.400Z,12.80
2022-10-08T05:39:32.536Z,12.75
2022-10-08T05:42:05.694Z,12.81
2022-10-08T05:44:40.599Z,12.83
2022-10-08T05:48:08.073Z,12.86
2022-10-08T05:50:45.578Z,12.93
2022-10-08T05:53:21.414Z,12.95
2022-10-08T05:56:02.443Z,13.06
2022-10-08T05:58:32.488Z,13.10
2022-10-08T06:01:02.951Z,13.05
2022-10-08T06:03:30.692Z,13.15
2022-10-08T06:06:06.060Z,13.11
2022-10-08T06:08:37.073Z,13.12
2022-10-08T06:11:05.931Z,13.14
2022-10-08T06:13:33.730Z,13.18
2022-10-08T06:16:15.389Z,13.14
2022-10-08T06:18:47.335Z,13.15
2022-10-08T06:21:21.201Z,13.15
2022-10-08T06:24:00.465Z,13.09
2022-10-08T06:26:35.599Z,13.03
2022-10-08T06:29:18.191Z,12.95
2022-10-08T06:31:46.477Z,12.94
2022-10-08T06:34:15.335Z,12.95
2022-10-08T06:36:43.479Z,12.91
2022-10-08T06:39:19.433Z,12.92
2022-10-08T06:41:50.893Z,12.95
2022-10-08T06:44:28.488Z,12.93
2022-10-08T06:46:55.983Z,12.91
2022-10-08T06:49:30.567Z,12.92
2022-10-08T06:52:01.254Z,12.96
2022-10-08T06:54:28.790Z,12.91
2022-10-08T06:57:01.231Z,12.99
2022-10-08T06:59:29.990Z,12.98
2022-10-08T07:01:59.524Z,12.94
2022-10-08T07:04:28.559Z,13.00
2022-10-08T07:07:30.419Z,12.98
2022-10-08T07:10:05.931Z,12.98
2022-10-08T07:12:53.311Z,12.99
2022-10-08T07:15:25.106Z,13.05
2022-10-08T07:18:23.526Z,13.14
2022-10-08T07:21:24.204Z,13.26
2022-10-08T07:23:52.133Z,13.24
2022-10-08T07:26:21.593Z,13.32
2022-10-08T07:28:58.063Z,13.34
2022-10-08T07:31:30.346Z,13.31
2022-10-08T07:33:59.732Z,13.29
2022-10-08T07:36:32.842Z,13.25
2022-10-08T07:39:09.196Z,13.35
2022-10-08T07:41:36.692Z,13.39
2022-10-08T07:44:05.471Z,13.41
2022-10-08T07:46:35.462Z,13.48
2022-10-08T07:49:05.061Z,13.36
2022-10-08T07:51:34.889Z,13.34
2022-10-08T07:54:05.137Z,13.35
2022-10-08T07:56:46.198Z,13.38
2022-10-08T07:59:16.258Z,13.40
2022-10-08T08:01:44.219Z,13.43
2022-10-08T08:04:11.775Z,13.45
2022-10-08T08:06:45.423Z,13.51
2022-10-08T08:09:14.578Z,13.46
2022-10-08T08:11:42.461Z,13.42
2022-10-08T08:14:09.881Z,13.47
2022-10-08T08:16:38.463Z,13.70
2022-10-08T08:19:07.937Z,13.91
2022-10-08T08:21:37.941Z,14.02
2022-10-08T08:24:08.215Z,14.00
2022-10-08T08:26:38.015Z,13.99
2022-10-08T08:29:12.039Z,14.10
2022-10-08T08:31:44.998Z,14.22
2022-10-08T08:34:16.406Z,14.18
2022-10-08T08:36:46.328Z,14.05
2022-10-08T08:39:22.302Z,14.15
2022-10-08T08:42:14.088Z,14.00
2022-10-08T08:44:44.900Z,13.97
2022-10-08T08:47:50.296Z,14.25
2022-10-08T08:50:34.821Z,14.30
2022-10-08T08:53:42.278Z,14.59
2022-10-08T08:56:16.645Z,14.67
2022-10-08T08:59:32.238Z,14.57
2022-10-08T09:02:06.086Z,14.40
2022-10-08T09:05:06.088Z,14.53
2022-10-08T09:07:49.783Z,14.29
2022-10-08T09:10:39.203Z,14.47
2022-10-08T09:13:17.043Z,14.42
2022-10-08T09:15:45.970Z,14.54
2022-10-08T09:18:16.035Z,14.43
2022-10-08T09:20:45.763Z,14.39
2022-10-08T09:23:23.086Z,14.30
2022-10-08T09:26:01.743Z,14.34
2022-10-08T09:28:45.234Z,14.12
2022-10-08T09:31:40.619Z,14.17
2022-10-08T09:34:13.522Z,14.30
2022-10-08T09:37:29.977Z,14.33
2022-10-08T09:40:15.430Z,14.23
2022-10-08T09:42:43.255Z,14.42
2022-10-08T09:45:44.866Z,14.38
2022-10-08T09:48:28.141Z,14.24
2022-10-08T09:51:20.732Z,14.37
2022-10-08T09:53:54.291Z,14.30
2022-10-08T09:59:23.767Z,14.47
2022-10-08T10:01:55.756Z,14.30
2022-10-08T10:04:31.060Z,14.21
2022-10-08T10:06:59.582Z,14.22
2022-10-08T10:10:14.087Z,14.28
2022-10-08T10:13:11.018Z,14.02
2022-10-08T10:15:49.340Z,14.11
2022-10-08T10:18:25.938Z,14.54
2022-10-08T10:20:58.783Z,14.56
2022-10-08T10:23:32.010Z,14.59
2022-10-08T10:26:17.666Z,14.62
2022-10-08T10:28:59.757Z,14.60
2022-10-08T10:31:39.872Z,14.64
2022-10-08T10:34:23.777Z,14.46
2022-10-08T10:37:00.086Z,14.60
2022-10-08T10:40:10.405Z,14.59
2022-10-08T10:42:51.403Z,14.53
2022-10-08T10:45:49.348Z,14.59
2022-10-08T10:48:31.133Z,14.66
2022-10-08T10:51:53.747Z,14.69
2022-10-08T10:54:57.717Z,14.67
2022-10-08T10:57:52.597Z,14.81
2022-10-08T11:00:57.217Z,14.75
2022-10-08T11:03:59.809Z,14.58
2022-10-08T11:07:06.254Z,14.62
2022-10-08T11:09:50.948Z,14.46
2022-10-08T11:12:46.600Z,14.39
2022-10-08T11:15:32.893Z,14.44
2022-10-08T11:18:30.185Z,14.57
2022-10-08T11:21:17.457Z,14.61
2022-10-08T11:24:03.616Z,14.65
2022-10-08T11:26:48.786Z,14.55
2022-10-08T11:29:38.918Z,14.62
2022-10-08T11:32:14.303Z,14.45
2022-10-08T11:34:57.805Z,14.34
2022-10-08T11:37:55.989Z,14.33
2022-10-08T11:40:54.979Z,14.49
2022-10-08T11:43:52.545Z,14.48
2022-10-08T11:46:33.546Z,14.46
2022-10-08T11:49:16.697Z,14.67
2022-10-08T11:52:00.586Z,14.63
2022-10-08T11:54:55.275Z,14.59
2022-10-08T11:58:02.886Z,14.66
2022-10-08T12:00:35.046Z,14.66
2022-10-08T12:03:23.642Z,14.69
2022-10-08T12:05:59.829Z,14.59
2022-10-08T12:08:53.587Z,14.46
2022-10-08T12:11:37.843Z,14.39
2022-10-08T12:14:14.141Z,14.71
2022-10-08T12:16:49.704Z,14.72
2022-10-08T12:19:35.796Z,15.11
2022-10-08T12:22:45.364Z,15.67
2022-10-08T12:25:39.324Z,16.10
2022-10-08T12:28:20.275Z,16.04
2022-10-08T12:30:52.750Z,15.65
2022-10-08T12:33:23.335Z,15.15
2022-10-08T12:36:08.408Z,14.89
2022-10-08T12:42:19.973Z,15.19
2022-10-08T12:45:06.678Z,15.41
2022-10-08T12:51:50.502Z,15.65
2022-10-08T12:54:22.914Z,15.65
2022-10-08T13:02:04.099Z,16.02
2022-10-08T13:04:50.896Z,16.24
2022-10-08T13:07:29.448Z,16.18
2022-10-08T13:10:00.905Z,16.24
2022-10-08T13:12:29.882Z,15.95
2022-10-08T13:15:09.583Z,15.43
2022-10-08T13:17:38.756Z,15.19
2022-10-08T13:20:11.033Z,15.09
2022-10-08T13:22:46.755Z,14.97
2022-10-08T13:25:33.405Z,14.82
2022-10-08T13:28:59.035Z,14.70
2022-10-08T13:31:26.191Z,14.55
2022-10-08T13:33:56.096Z,14.50
2022-10-08T13:36:26.783Z,14.50
2022-10-08T13:38:55.552Z,14.56
2022-10-08T13:41:26.703Z,14.55
2022-10-08T13:43:55.158Z,14.62
2022-10-08T13:46:23.743Z,14.63
2022-10-08T13:49:02.622Z,14.60
2022-10-08T13:51:34.997Z,14.78
2022-10-08T13:54:04.229Z,14.80
2022-10-08T13:56:37.305Z,14.35
2022-10-08T13:59:07.956Z,14.22
2022-10-08T14:01:52.912Z,14.19
2022-10-08T14:04:21.347Z,14.15
2022-10-08T14:06:55.237Z,13.83
2022-10-08T14:09:28.649Z,13.55
2022-10-08T14:12:05.256Z,13.48
2022-10-08T14:14:32.925Z,13.37
2022-10-08T14:17:06.706Z,13.16
2022-10-08T14:19:42.308Z,13.05
2022-10-08T14:22:17.912Z,12.95
2022-10-08T14:24:50.087Z,12.84
2022-10-08T14:27:18.578Z,12.81
2022-10-08T14:29:59.546Z,12.75
2022-10-08T14:32:28.789Z,12.60
2022-10-08T14:35:17.011Z,12.60
2022-10-08T14:37:51.212Z,12.56
2022-10-08T14:43:44.485Z,12.64
2022-10-08T14:46:11.900Z,12.66
2022-10-08T14:48:39.828Z,12.60
2022-10-08T14:51:09.981Z,12.52
2022-10-08T14:53:38.536Z,12.51
2022-10-08T14:56:12.764Z,12.52
2022-10-08T14:58:54.343Z,12.50
2022-10-08T15:01:39.217Z,12.30
2022-10-08T15:04:07.694Z,12.18
2022-10-08T15:06:36.350Z,12.06
2022-10-08T15:09:05.227Z,12.04
2022-10-08T15:11:35.028Z,12.03
2022-10-08T15:14:02.990Z,12.02
2022-10-08T15:16:31.660Z,11.95
2022-10-08T15:19:01.264Z,11.98
2022-10-08T15:21:43.294Z,12.00
2022-10-08T15:24:10.970Z,12.01
2022-10-08T15:26:38.959Z,12.02
2022-10-08T15:29:22.624Z,12.00
2022-10-08T15:31:51.503Z,12.08
2022-10-08T15:34:20.159Z,12.03
2022-10-08T15:36:47.688Z,12.05
2022-10-08T15:39:20.729Z,12.02
2022-10-08T15:41:51.788Z,12.07
2022-10-08T15:44:27.000Z,12.02
2022-10-08T15:47:02.641Z,12.02
2022-10-08T15:49:40.028Z,12.06
2022-10-08T15:52:24.246Z,12.03
2022-10-08T15:54:52.187Z,12.06
2022-10-08T15:57:19.764Z,12.01
2022-10-08T15:59:48.291Z,11.98
2022-10-08T16:02:17.921Z,11.93
2022-10-08T16:04:47.111Z,11.97
2022-10-08T16:07:14.539Z,11.91
2022-10-08T16:09:41.872Z,11.94
2022-10-08T16:12:10.353Z,12.05
2022-10-08T16:14:39.821Z,11.96
2022-10-08T16:17:10.872Z,12.08
2022-10-08T16:19:38.693Z,12.00
2022-10-08T16:22:08.811Z,11.96
2022-10-08T16:25:08.739Z,11.79
2022-10-08T16:27:39.833Z,11.77
2022-10-08T16:30:13.283Z,11.74
2022-10-08T16:32:44.625Z,11.68
2022-10-08T16:35:19.287Z,11.72
2022-10-08T16:37:57.393Z,11.66
2022-10-08T16:40:32.554Z,11.62
2022-10-08T16:43:13.433Z,11.67
2022-10-08T16:45:43.114Z,11.56
2022-10-08T16:48:12.728Z,11.41
2022-10-08T16:50:43.243Z,11.33
2022-10-08T16:53:15.058Z,11.24
2022-10-08T16:55:44.174Z,11.15
2022-10-08T16:58:18.020Z,11.07
2022-10-08T17:00:57.898Z,11.02
2022-10-08T17:03:38.176Z,10.97
2022-10-08T17:06:09.515Z,10.93
2022-10-08T17:08:42.531Z,10.89
2022-10-08T17:11:15.673Z,10.87
2022-10-08T17:13:46.010Z,10.90
2022-10-08T17:16:15.210Z,10.89
2022-10-08T17:18:45.962Z,10.79
2022-10-08T17:21:19.268Z,10.77
2022-10-08T17:23:47.934Z,10.70
2022-10-08T17:26:18.047Z,10.74
2022-10-08T17:28:50.539Z,10.65
2022-10-08T17:31:24.219Z,10.62
2022-10-08T17:34:01.586Z,10.59
2022-10-08T17:37:06.212Z,10.53
2022-10-08T17:39:45.575Z,10.51
2022-10-08T17:42:17.910Z,10.45
2022-10-08T17:44:47.171Z,10.43
2022-10-08T17:47:24.576Z,10.37
2022-10-08T17:49:55.340Z,10.27
2022-10-08T17:52:26.381Z,10.34
2022-10-08T17:54:55.096Z,10.31
2022-10-08T17:57:25.827Z,10.33
2022-10-08T17:59:53.581Z,10.38
2022-10-08T18:02:21.125Z,10.39
2022-10-08T18:04:49.143Z,10.40
2022-10-08T18:07:16.557Z,10.37
2022-10-08T18:09:44.314Z,10.40
2022-10-08T18:12:11.880Z,10.33
2022-10-08T18:14:40.029Z,10.30
2022-10-08T18:17:07.434Z,10.31
2022-10-08T18:19:34.898Z,10.20
2022-10-08T18:22:02.703Z,10.23
2022-10-08T18:24:30.065Z,10.16
2022-10-08T18:26:59.953Z,10.10
2022-10-08T18:29:27.389Z,10.12
2022-10-08T18:31:54.735Z,10.05
2022-10-08T18:34:22.509Z,10.16
2022-10-08T18:36:50.323Z,10.11
2022-10-08T18:39:28.295Z,10.11
2022-10-08T18:41:58.885Z,10.08
2022-10-08T18:44:28.657Z,10.00
2022-10-08T18:46:56.010Z,9.93
2022-10-08T18:49:30.938Z,9.90
2022-10-08T18:51:58.964Z,9.87
2022-10-08T18:54:26.226Z,9.81
2022-10-08T18:57:07.659Z,9.80
2022-10-08T18:59:40.881Z,9.80
2022-10-08T19:02:13.602Z,9.71
2022-10-08T19:04:41.193Z,9.73
2022-10-08T19:07:09.091Z,9.69
2022-10-08T19:09:38.070Z,9.66
2022-10-08T19:12:09.888Z,9.63
2022-10-08T19:14:38.606Z,9.68
2022-10-08T19:17:06.561Z,9.63
2022-10-08T19:19:35.984Z,9.57
2022-10-08T19:22:03.606Z,9.63
2022-10-08T19:24:31.174Z,9.50
2022-10-08T19:27:07.551Z,9.50
2022-10-08T19:29:36.499Z,9.49
2022-10-08T19:32:05.180Z,9.48
2022-10-08T19:34:33.522Z,9.42
2022-10-08T19:37:05.013Z,9.37
2022-10-08T19:39:34.083Z,9.37
2022-10-08T19:42:04.224Z,9.27
2022-10-08T19:44:38.803Z,9.23
2022-10-08T19:47:06.374Z,9.23
2022-10-08T19:49:34.792Z,9.19
2022-10-08T19:52:04.650Z,9.21
2022-10-08T19:54:33.173Z,9.12
2022-10-08T19:57:08.840Z,9.04
2022-10-08T19:59:39.330Z,8.99
2022-10-08T20:02:07.150Z,9.03
2022-10-08T20:04:34.493Z,9.01
2022-10-08T20:07:12.021Z,9.06
2022-10-08T20:09:40.339Z,8.97
2022-10-08T20:12:07.652Z,8.90
2022-10-08T20:14:34.998Z,8.84
2022-10-08T20:17:04.426Z,8.86
2022-10-08T20:19:31.977Z,8.85
2022-10-08T20:21:59.280Z,8.81
2022-10-08T20:24:28.166Z,8.74
2022-10-08T20:26:56.267Z,8.79
2022-10-08T20:29:30.016Z,8.76
2022-10-08T20:32:08.931Z,8.77
2022-10-08T20:34:37.652Z,8.69
2022-10-08T20:37:05.122Z,8.67
2022-10-08T20:39:32.494Z,8.68
2022-10-08T20:42:01.962Z,8.58
2022-10-08T20:44:29.317Z,8.54
2022-10-08T20:47:00.885Z,8.52
2022-10-08T20:49:34.437Z,8.41
2022-10-08T20:52:03.990Z,8.39
2022-10-08T20:54:32.115Z,8.40
2022-10-08T20:56:59.773Z,8.43
2022-10-08T20:59:28.481Z,8.41
2022-10-08T21:01:56.630Z,8.35
2022-10-08T21:04:30.608Z,8.35
2022-10-08T21:07:19.930Z,8.35
2022-10-08T21:09:48.773Z,8.32
2022-10-08T21:12:16.264Z,8.29
2022-10-08T21:14:43.821Z,8.26
2022-10-08T21:17:11.144Z,8.25
2022-10-08T21:19:38.513Z,8.23
2022-10-08T21:22:07.879Z,8.17
2022-10-08T21:24:36.742Z,8.13
2022-10-08T21:27:05.224Z,8.24
2022-10-08T21:29:33.064Z,8.17
2022-10-08T21:32:00.726Z,8.24
2022-10-08T21:34:28.474Z,8.20
2022-10-08T21:37:00.764Z,8.16
2022-10-08T21:39:28.273Z,8.17
2022-10-08T21:42:04.366Z,8.06
2022-10-08T21:44:34.486Z,8.02
2022-10-08T21:47:01.951Z,7.90
2022-10-08T21:49:29.319Z,7.95
2022-10-08T21:51:58.467Z,7.83
2022-10-08T21:54:26.255Z,7.84
2022-10-08T21:56:53.777Z,7.85
2022-10-08T21:59:22.040Z,7.86
2022-10-08T22:01:50.594Z,7.87
2022-10-08T22:04:22.965Z,7.77
2022-10-08T22:06:55.650Z,7.80
2022-10-08T22:09:26.326Z,7.82
2022-10-08T22:11:55.182Z,7.83
2022-10-08T22:14:23.104Z,7.78
2022-10-08T22:17:00.265Z,7.72
2022-10-08T22:19:30.369Z,7.76
2022-10-08T22:21:58.698Z,7.74
2022-10-08T22:24:26.118Z,7.82
2022-10-08T22:26:59.796Z,7.72
2022-10-08T22:29:27.880Z,7.76
2022-10-08T22:31:55.397Z,7.74
2022-10-08T22:34:23.528Z,7.72
2022-10-08T22:36:58.125Z,7.67
2022-10-08T22:39:27.297Z,7.63
2022-10-08T22:41:55.386Z,7.61
2022-10-08T22:44:27.263Z,7.54
2022-10-08T22:46:54.589Z,7.53
2022-10-08T22:49:22.218Z,7.50
2022-10-08T22:52:03.946Z,7.53
2022-10-08T22:54:31.301Z,7.49
2022-10-08T22:56:58.745Z,7.48
2022-10-08T22:59:27.846Z,7.41
2022-10-08T23:01:57.884Z,7.44
2022-10-08T23:04:34.882Z,7.44
2022-10-08T23:07:02.684Z,7.45
2022-10-08T23:09:30.142Z,7.48
2022-10-08T23:12:00.383Z,7.36
2022-10-08T23:14:28.411Z,7.38
2022-10-08T23:16:56.099Z,7.38
2022-10-08T23:19:23.419Z,7.41
2022-10-08T23:21:55.741Z,7.42
2022-10-08T23:24:24.950Z,7.44
2022-10-08T23:26:53.488Z,7.37
2022-10-08T23:29:21.213Z,7.38
2022-10-08T23:31:49.102Z,7.36
2022-10-08T23:34:17.318Z,7.33
2022-10-08T23:36:46.427Z,7.34
2022-10-08T23:39:16.394Z,7.27
2022-10-08T23:41:53.112Z,7.26
2022-10-08T23:44:23.157Z,7.25
2022-10-08T23:46:50.552Z,7.26
2022-10-08T23:49:17.805Z,7.21
2022-10-08T23:51:45.445Z,7.21
2022-10-08T23:54:13.486Z,7.27
2022-10-08T23:57:06.426Z,7.26
2022-10-08T23:59:34.397Z,7.24
